createdAt,value
2022-08-29T00:00:59.689Z,6.63
2022-08-29T00:03:27.724Z,7.13
2022-08-29T00:05:56.640Z,6.35
2022-08-29T00:08:24.587Z,6.50
2022-08-29T00:10:51.711Z,6.57
2022-08-29T00:13:19.092Z,6.88
2022-08-29T00:15:45.967Z,6.93
2022-08-29T00:18:15.485Z,6.40
2022-08-29T00:20:42.723Z,7.10
2022-08-29T00:23:10.446Z,6.10
2022-08-29T00:25:37.950Z,6.20
2022-08-29T00:28:05.285Z,6.45
2022-08-29T00:30:32.632Z,6.47
2022-08-29T00:33:00.079Z,6.07
2022-08-29T00:35:30.981Z,6.88
2022-08-29T00:37:58.738Z,6.88
2022-08-29T00:40:31.420Z,6.60
2022-08-29T00:42:58.536Z,6.65
2022-08-29T00:45:25.558Z,6.93
2022-08-29T00:47:58.034Z,6.30
2022-08-29T00:50:40.670Z,6.38
2022-08-29T00:53:13.662Z,6.55
2022-08-29T00:55:40.927Z,6.10
2022-08-29T00:58:13.437Z,6.00
2022-08-29T01:00:43.476Z,6.50
2022-08-29T01:03:10.901Z,6.28
2022-08-29T01:05:37.856Z,6.10
2022-08-29T01:08:06.154Z,5.70
2022-08-29T01:10:53.297Z,6.07
2022-08-29T01:13:22.959Z,5.85
2022-08-29T01:15:51.199Z,5.47
2022-08-29T01:18:18.590Z,6.25
2022-08-29T01:21:00.689Z,5.80
2022-08-29T01:23:42.972Z,5.90
2022-08-29T01:26:11.274Z,5.63
2022-08-29T01:28:42.697Z,5.55
2022-08-29T01:31:31.755Z,5.47
2022-08-29T01:34:03.962Z,5.68
2022-08-29T01:36:42.448Z,5.75
2022-08-29T01:39:10.240Z,5.50
2022-08-29T01:41:37.131Z,5.53
2022-08-29T01:44:13.159Z,5.68
2022-08-29T01:46:40.881Z,5.28
2022-08-29T01:49:09.508Z,5.70
2022-08-29T01:51:37.660Z,5.47
2022-08-29T01:54:08.872Z,5.25
2022-08-29T01:56:38.389Z,6.57
2022-08-29T01:59:08.401Z,5.55
2022-08-29T02:01:38.439Z,5.45
2022-08-29T02:04:06.587Z,6.32
2022-08-29T02:06:34.275Z,6.45
2022-08-29T02:09:01.435Z,6.00
2022-08-29T02:11:28.354Z,5.90
2022-08-29T02:13:58.871Z,5.90
2022-08-29T02:16:27.384Z,5.32
2022-08-29T02:18:55.339Z,4.82
2022-08-29T02:21:24.839Z,5.53
2022-08-29T02:23:52.507Z,4.63
2022-08-29T02:26:20.728Z,4.47
2022-08-29T02:28:49.504Z,4.47
2022-08-29T02:31:16.726Z,4.38
2022-08-29T02:33:43.651Z,4.75
2022-08-29T02:36:10.724Z,4.22
2022-08-29T02:38:37.973Z,4.50
2022-08-29T02:41:06.208Z,4.22
2022-08-29T02:43:33.877Z,4.57
2022-08-29T02:46:00.895Z,4.43
2022-08-29T02:48:27.834Z,4.65
2022-08-29T02:50:56.833Z,4.70
2022-08-29T02:53:29.505Z,4.95
2022-08-29T02:55:57.017Z,5.07
2022-08-29T02:58:24.854Z,4.30
2022-08-29T03:00:52.211Z,4.78
2022-08-29T03:03:19.351Z,4.80
2022-08-29T03:05:46.661Z,4.70
2022-08-29T03:08:14.804Z,4.75
2022-08-29T03:10:42.928Z,4.85
2022-08-29T03:13:10.955Z,4.78
2022-08-29T03:15:38.245Z,4.82
2022-08-29T03:18:05.514Z,5.13
2022-08-29T03:20:34.929Z,5.18
2022-08-29T03:23:02.163Z,5.15
2022-08-29T03:25:29.369Z,4.75
2022-08-29T03:27:56.623Z,4.78
2022-08-29T03:30:24.054Z,5.40
2022-08-29T03:32:51.419Z,5.25
2022-08-29T03:35:19.700Z,5.30
2022-08-29T03:37:46.900Z,5.15
2022-08-29T03:40:14.242Z,5.55
2022-08-29T03:42:42.873Z,6.47
2022-08-29T03:45:12.077Z,5.75
2022-08-29T03:47:39.514Z,5.57
2022-08-29T03:50:06.714Z,5.75
2022-08-29T03:52:33.913Z,5.55
2022-08-29T03:55:01.149Z,6.10
2022-08-29T03:57:29.210Z,5.97
2022-08-29T03:59:58.292Z,5.32
2022-08-29T04:02:25.410Z,5.40
2022-08-29T04:05:08.264Z,5.88
2022-08-29T04:07:44.129Z,4.97
2022-08-29T04:10:14.210Z,5.25
2022-08-29T04:12:41.434Z,5.80
2022-08-29T04:15:09.188Z,5.85
2022-08-29T04:17:36.381Z,6.20
2022-08-29T04:20:05.995Z,6.00
2022-08-29T04:22:35.956Z,6.45
2022-08-29T04:25:06.282Z,6.07
2022-08-29T04:27:33.857Z,6.25
2022-08-29T04:30:00.802Z,6.57
2022-08-29T04:32:27.852Z,6.50
2022-08-29T04:34:58.360Z,6.65
2022-08-29T04:37:25.340Z,6.75
2022-08-29T04:39:52.446Z,6.97
2022-08-29T04:42:20.405Z,6.93
2022-08-29T04:44:48.364Z,6.63
2022-08-29T04:47:15.479Z,5.95
2022-08-29T04:49:42.555Z,6.60
2022-08-29T04:52:10.331Z,6.82
2022-08-29T04:54:37.399Z,7.22
2022-08-29T04:57:05.086Z,6.97
2022-08-29T04:59:32.280Z,7.03
2022-08-29T05:02:00.530Z,6.75
2022-08-29T05:04:27.536Z,6.88
2022-08-29T05:06:54.462Z,6.85
2022-08-29T05:09:22.182Z,6.50
2022-08-29T05:11:49.250Z,7.10
2022-08-29T05:14:16.098Z,6.65
2022-08-29T05:16:43.211Z,7.25
2022-08-29T05:19:10.250Z,7.40
2022-08-29T05:21:39.356Z,6.75
2022-08-29T05:24:09.654Z,7.22
2022-08-29T05:26:39.930Z,7.50
2022-08-29T05:29:09.030Z,6.85
2022-08-29T05:31:41.321Z,7.25
2022-08-29T05:34:32.430Z,7.38
2022-08-29T05:36:58.530Z,8.07
2022-08-29T05:39:25.652Z,6.50
2022-08-29T05:41:56.666Z,7.90
2022-08-29T05:44:24.002Z,7.32
2022-08-29T05:46:51.063Z,7.97
2022-08-29T05:49:17.976Z,8.02
2022-08-29T05:51:45.099Z,7.07
2022-08-29T05:54:11.964Z,7.45
2022-08-29T05:56:38.904Z,7.60
2022-08-29T05:59:06.193Z,7.55
2022-08-29T06:01:34.190Z,7.63
2022-08-29T06:04:01.348Z,7.32
2022-08-29T06:06:29.558Z,7.40
2022-08-29T06:08:57.765Z,7.63
2022-08-29T06:11:27.435Z,6.75
2022-08-29T06:13:54.822Z,6.78
2022-08-29T06:16:23.757Z,7.03
2022-08-29T06:18:51.360Z,6.90
2022-08-29T06:21:18.573Z,7.13
2022-08-29T06:23:46.202Z,7.28
2022-08-29T06:26:13.885Z,7.63
2022-08-29T06:28:47.054Z,7.63
2022-08-29T06:31:21.589Z,7.40
2022-08-29T06:33:52.084Z,8.50
2022-08-29T06:36:19.075Z,8.00
2022-08-29T06:38:46.203Z,8.52
2022-08-29T06:41:16.373Z,9.07
2022-08-29T06:43:43.614Z,8.20
2022-08-29T06:46:20.909Z,9.00
2022-08-29T06:48:48.496Z,9.23
2022-08-29T06:51:15.480Z,10.25
2022-08-29T06:53:42.748Z,11.55
2022-08-29T06:56:11.200Z,10.80
2022-08-29T06:58:38.703Z,10.93
2022-08-29T07:01:09.064Z,10.93
2022-08-29T07:03:36.394Z,12.15
2022-08-29T07:06:03.568Z,11.88
2022-08-29T07:08:31.519Z,12.48
2022-08-29T07:10:58.558Z,12.82
2022-08-29T07:13:25.563Z,12.93
2022-08-29T07:15:52.692Z,12.20
2022-08-29T07:18:20.237Z,12.43
2022-08-29T07:20:47.223Z,12.20
2022-08-29T07:23:14.368Z,11.82
2022-08-29T07:25:41.633Z,12.60
2022-08-29T07:28:08.530Z,12.65
2022-08-29T07:30:37.645Z,12.07
2022-08-29T07:33:05.116Z,12.13
2022-08-29T07:35:32.155Z,13.45
2022-08-29T07:38:01.237Z,13.75
2022-08-29T07:40:28.631Z,14.27
2022-08-29T07:42:55.606Z,15.38
2022-08-29T07:45:22.533Z,15.13
2022-08-29T07:47:49.835Z,15.98
2022-08-29T07:50:17.199Z,15.55
2022-08-29T07:52:44.199Z,15.77
2022-08-29T07:55:12.108Z,16.80
2022-08-29T07:57:39.980Z,17.38
2022-08-29T08:00:12.357Z,17.15
2022-08-29T08:02:39.587Z,16.92
2022-08-29T08:05:07.517Z,19.15
2022-08-29T08:07:35.306Z,18.45
2022-08-29T08:10:03.894Z,18.42
2022-08-29T08:12:30.807Z,20.60
2022-08-29T08:14:58.087Z,19.48
2022-08-29T08:17:25.952Z,19.80
2022-08-29T08:19:53.352Z,21.48
2022-08-29T08:22:20.259Z,22.13
2022-08-29T08:24:48.637Z,21.95
2022-08-29T08:27:15.656Z,21.90
2022-08-29T08:29:43.991Z,23.08
2022-08-29T08:32:11.082Z,24.58
2022-08-29T08:34:38.012Z,22.98
2022-08-29T08:37:08.763Z,24.23
2022-08-29T08:39:37.089Z,25.55
2022-08-29T08:42:25.841Z,25.33
2022-08-29T08:45:01.943Z,23.33
2022-08-29T08:47:33.566Z,23.13
2022-08-29T08:50:15.981Z,23.90
2022-08-29T08:52:50.888Z,23.25
2022-08-29T08:55:28.331Z,25.85
2022-08-29T08:58:02.337Z,24.20
2022-08-29T09:00:37.349Z,26.02
2022-08-29T09:03:22.690Z,23.98
2022-08-29T09:06:14.991Z,25.00
2022-08-29T09:09:10.374Z,24.35
2022-08-29T09:12:24.331Z,26.08
2022-08-29T09:15:17.720Z,27.33
2022-08-29T09:18:13.673Z,24.38
2022-08-29T09:20:42.820Z,21.35
2022-08-29T09:23:20.763Z,19.33
2022-08-29T09:25:48.315Z,18.65
2022-08-29T09:28:15.984Z,20.33
2022-08-29T09:30:46.187Z,20.40
2022-08-29T09:33:16.928Z,18.38
2022-08-29T09:35:51.983Z,16.75
2022-08-29T09:38:21.313Z,15.05
2022-08-29T09:40:57.204Z,13.88
2022-08-29T09:43:24.263Z,13.40
2022-08-29T09:46:08.003Z,11.45
2022-08-29T09:48:40.610Z,11.05
2022-08-29T09:51:12.180Z,10.25
2022-08-29T09:53:39.855Z,9.27
2022-08-29T09:56:09.388Z,10.23
2022-08-29T09:58:40.482Z,9.77
2022-08-29T10:01:17.951Z,10.25
2022-08-29T10:03:56.588Z,9.88
2022-08-29T10:06:27.136Z,9.38
2022-08-29T10:09:05.525Z,8.95
2022-08-29T10:12:12.565Z,7.95
2022-08-29T10:14:50.624Z,7.40
2022-08-29T10:17:43.558Z,7.15
2022-08-29T10:20:11.730Z,6.65
2022-08-29T10:22:50.500Z,6.88
2022-08-29T10:25:36.556Z,7.82
2022-08-29T10:28:33.021Z,6.95
2022-08-29T10:31:11.432Z,6.80
2022-08-29T10:33:41.226Z,6.20
2022-08-29T10:36:15.912Z,6.50
2022-08-29T10:38:55.952Z,4.65
2022-08-29T10:41:50.707Z,4.18
2022-08-29T10:44:20.418Z,4.50
2022-08-29T10:46:56.706Z,5.65
2022-08-29T10:49:43.096Z,4.82
2022-08-29T10:52:17.840Z,5.07
2022-08-29T10:55:06.555Z,7.15
2022-08-29T10:57:36.444Z,5.47
2022-08-29T11:00:36.470Z,4.65
2022-08-29T11:03:24.826Z,2.63
2022-08-29T11:06:03.608Z,3.00
2022-08-29T11:08:38.238Z,3.80
2022-08-29T11:11:05.225Z,3.22
2022-08-29T11:13:39.770Z,3.60
2022-08-29T11:16:36.819Z,3.42
2022-08-29T11:19:18.999Z,3.10
2022-08-29T11:21:55.527Z,2.85
2022-08-29T11:24:28.160Z,4.55
2022-08-29T11:27:22.608Z,4.70
2022-08-29T11:30:02.609Z,3.97
2022-08-29T11:32:38.979Z,5.40
2022-08-29T11:35:22.289Z,4.28
2022-08-29T11:38:11.077Z,5.20
2022-08-29T11:43:43.997Z,4.95
2022-08-29T11:46:12.522Z,4.63
2022-08-29T11:48:47.565Z,4.57
2022-08-29T11:51:37.714Z,4.95
2022-08-29T11:54:26.693Z,4.93
2022-08-29T11:57:02.734Z,4.97
2022-08-29T11:59:56.823Z,4.60
2022-08-29T12:02:32.629Z,6.03
2022-08-29T12:05:04.466Z,6.25
2022-08-29T12:07:49.353Z,5.95
2022-08-29T12:10:23.617Z,6.43
2022-08-29T12:13:11.073Z,6.80
2022-08-29T12:15:38.378Z,6.80
2022-08-29T12:18:09.745Z,7.65
2022-08-29T12:20:40.762Z,7.28
2022-08-29T12:23:11.067Z,7.63
2022-08-29T12:25:44.738Z,8.38
2022-08-29T12:28:21.119Z,8.45
2022-08-29T12:30:51.269Z,7.93
2022-08-29T12:33:43.485Z,8.25
2022-08-29T12:36:27.850Z,8.95
2022-08-29T12:39:01.106Z,8.77
2022-08-29T12:41:37.396Z,8.40
2022-08-29T12:44:11.714Z,8.85
2022-08-29T12:46:41.681Z,9.20
2022-08-29T12:49:08.944Z,15.98
2022-08-29T12:51:41.617Z,10.77
2022-08-29T12:54:10.800Z,11.05
2022-08-29T12:56:42.920Z,9.13
2022-08-29T12:59:17.985Z,9.60
2022-08-29T13:01:49.292Z,9.73
2022-08-29T13:04:20.361Z,9.27
2022-08-29T13:07:05.832Z,8.98
2022-08-29T13:09:41.414Z,8.80
2022-08-29T13:12:16.329Z,8.82
2022-08-29T13:15:05.493Z,9.48
2022-08-29T13:17:39.929Z,10.18
2022-08-29T13:20:38.018Z,9.80
2022-08-29T13:23:12.381Z,9.18
2022-08-29T13:26:02.564Z,9.18
2022-08-29T13:28:50.991Z,8.95
2022-08-29T13:31:18.597Z,8.23
2022-08-29T13:33:45.705Z,8.10
2022-08-29T13:36:47.556Z,8.35
2022-08-29T13:39:17.425Z,8.02
2022-08-29T13:41:57.776Z,8.38
2022-08-29T13:44:46.487Z,8.73
2022-08-29T13:47:18.519Z,9.05
2022-08-29T13:49:46.299Z,8.52
2022-08-29T13:52:13.409Z,7.80
2022-08-29T13:54:42.430Z,7.70
2022-08-29T13:57:20.187Z,6.85
2022-08-29T13:59:47.294Z,5.45
2022-08-29T14:02:15.103Z,6.10
2022-08-29T14:04:48.950Z,6.22
2022-08-29T14:07:19.395Z,5.18
2022-08-29T14:09:46.962Z,4.82
2022-08-29T14:12:15.212Z,4.97
2022-08-29T14:14:43.226Z,4.78
2022-08-29T14:17:11.095Z,4.97
2022-08-29T14:19:46.135Z,4.55
2022-08-29T14:22:13.152Z,5.00
2022-08-29T14:24:40.725Z,5.10
2022-08-29T14:27:08.943Z,4.78
2022-08-29T14:29:36.113Z,4.32
2022-08-29T14:32:03.572Z,4.30
2022-08-29T14:34:32.417Z,4.25
2022-08-29T14:37:03.099Z,4.13
2022-08-29T14:39:30.418Z,3.78
2022-08-29T14:41:57.508Z,4.55
2022-08-29T14:44:24.407Z,4.53
2022-08-29T14:46:51.851Z,4.70
2022-08-29T14:49:19.318Z,4.25
2022-08-29T14:51:46.764Z,4.75
2022-08-29T14:54:13.896Z,4.50
2022-08-29T14:56:50.454Z,4.35
2022-08-29T14:59:22.328Z,4.38
2022-08-29T15:01:54.278Z,4.78
2022-08-29T15:04:36.445Z,4.38
2022-08-29T15:07:09.542Z,4.20
2022-08-29T15:09:37.142Z,4.20
2022-08-29T15:12:05.115Z,4.43
2022-08-29T15:14:34.657Z,4.40
2022-08-29T15:17:02.756Z,3.65
2022-08-29T15:20:33.668Z,4.07
2022-08-29T15:22:17.653Z,3.58
2022-08-29T15:24:44.964Z,2.95
2022-08-29T15:27:12.520Z,3.53
2022-08-29T15:29:42.854Z,2.97
2022-08-29T15:32:11.635Z,2.67
2022-08-29T15:34:39.401Z,2.88
2022-08-29T15:37:07.241Z,2.92
2022-08-29T15:39:34.721Z,2.95
2022-08-29T15:42:04.003Z,2.70
2022-08-29T15:44:31.193Z,2.35
2022-08-29T15:46:58.373Z,2.63
2022-08-29T15:49:26.162Z,2.58
2022-08-29T15:51:54.095Z,2.78
2022-08-29T15:54:22.107Z,2.30
2022-08-29T15:56:49.870Z,2.08
2022-08-29T15:59:27.632Z,2.50
2022-08-29T16:02:03.728Z,2.63
2022-08-29T16:04:31.346Z,2.00
2022-08-29T16:06:59.042Z,2.65
2022-08-29T16:09:25.913Z,2.20
2022-08-29T16:11:53.119Z,2.25
2022-08-29T16:14:58.203Z,2.10
2022-08-29T16:17:08.921Z,2.15
2022-08-29T16:19:41.806Z,2.70
2022-08-29T16:22:10.047Z,2.92
2022-08-29T16:24:37.403Z,2.33
2022-08-29T16:27:04.549Z,2.60
2022-08-29T16:29:31.643Z,2.40
2022-08-29T16:31:58.840Z,2.38
2022-08-29T16:34:27.404Z,2.20
2022-08-29T16:36:58.625Z,2.60
2022-08-29T16:39:26.783Z,2.40
2022-08-29T16:41:54.153Z,2.53
2022-08-29T16:44:21.428Z,2.40
2022-08-29T16:46:48.751Z,3.05
2022-08-29T16:49:15.766Z,3.22
2022-08-29T16:51:43.045Z,2.42
2022-08-29T16:54:10.389Z,2.67
2022-08-29T16:56:39.635Z,2.55
2022-08-29T16:59:07.007Z,3.13
2022-08-29T17:01:39.955Z,3.15
2022-08-29T17:04:10.768Z,3.17
2022-08-29T17:06:39.485Z,2.53
2022-08-29T17:09:08.916Z,2.70
2022-08-29T17:11:37.090Z,2.70
2022-08-29T17:14:06.064Z,2.50
2022-08-29T17:16:33.054Z,2.55
2022-08-29T17:19:00.255Z,2.20
2022-08-29T17:21:27.365Z,2.80
2022-08-29T17:23:55.479Z,2.42
2022-08-29T17:26:22.810Z,2.20
2022-08-29T17:28:51.226Z,2.47
2022-08-29T17:31:18.695Z,2.30
2022-08-29T17:33:46.459Z,2.03
2022-08-29T17:36:13.751Z,2.40
2022-08-29T17:38:42.593Z,2.08
2022-08-29T17:41:15.326Z,2.70
2022-08-29T17:43:45.743Z,2.38
2022-08-29T17:46:12.930Z,1.95
2022-08-29T17:48:39.969Z,2.40
2022-08-29T17:51:07.167Z,2.75
2022-08-29T17:53:34.051Z,2.05
2022-08-29T17:56:18.438Z,2.42
2022-08-29T17:58:45.854Z,2.35
2022-08-29T18:01:16.527Z,2.60
2022-08-29T18:03:45.104Z,2.58
2022-08-29T18:06:14.530Z,2.40
2022-08-29T18:08:48.015Z,2.90
2022-08-29T18:11:17.408Z,2.40
2022-08-29T18:13:46.132Z,2.88
2022-08-29T18:16:14.784Z,2.28
2022-08-29T18:18:46.808Z,2.53
2022-08-29T18:21:18.277Z,2.40
2022-08-29T18:23:46.221Z,2.22
2022-08-29T18:26:14.659Z,2.33
2022-08-29T18:28:41.777Z,2.28
2022-08-29T18:31:09.673Z,2.30
2022-08-29T18:33:59.099Z,2.88
2022-08-29T18:36:26.327Z,2.58
2022-08-29T18:38:53.203Z,3.10
2022-08-29T18:41:20.208Z,3.08
2022-08-29T18:43:47.476Z,3.35
2022-08-29T18:46:14.530Z,3.40
2022-08-29T18:48:44.793Z,3.10
2022-08-29T18:51:12.831Z,2.97
2022-08-29T18:53:39.852Z,3.40
2022-08-29T18:56:06.949Z,2.92
2022-08-29T18:58:35.180Z,4.18
2022-08-29T19:01:14.466Z,3.55
2022-08-29T19:03:41.808Z,3.25
2022-08-29T19:06:08.697Z,2.92
2022-08-29T19:08:37.363Z,3.80
2022-08-29T19:11:07.293Z,2.97
2022-08-29T19:13:35.387Z,3.10
2022-08-29T19:16:04.928Z,2.92
2022-08-29T19:18:32.721Z,3.00
2022-08-29T19:21:02.678Z,3.13
2022-08-29T19:23:32.775Z,3.40
2022-08-29T19:26:00.615Z,2.80
2022-08-29T19:28:27.678Z,2.78
2022-08-29T19:30:55.461Z,2.92
2022-08-29T19:33:23.273Z,3.00
2022-08-29T19:35:51.495Z,3.05
2022-08-29T19:38:19.896Z,2.55
2022-08-29T19:40:48.721Z,2.40
2022-08-29T19:43:16.398Z,3.25
2022-08-29T19:45:44.476Z,2.85
2022-08-29T19:48:15.427Z,2.58
2022-08-29T19:50:47.449Z,2.70
2022-08-29T19:53:21.486Z,2.72
2022-08-29T19:55:56.741Z,2.63
2022-08-29T19:58:31.091Z,2.20
2022-08-29T20:01:04.476Z,2.70
2022-08-29T20:03:36.693Z,2.63
2022-08-29T20:06:06.960Z,2.65
2022-08-29T20:08:42.967Z,2.63
2022-08-29T20:11:11.442Z,2.67
2022-08-29T20:13:39.888Z,3.03
2022-08-29T20:16:12.006Z,2.90
2022-08-29T20:18:41.466Z,3.00
2022-08-29T20:21:09.141Z,3.15
2022-08-29T20:23:38.936Z,3.20
2022-08-29T20:26:14.699Z,3.15
2022-08-29T20:28:42.839Z,2.90
2022-08-29T20:31:09.852Z,2.85
2022-08-29T20:33:41.232Z,2.53
2022-08-29T20:36:27.110Z,2.55
2022-08-29T20:38:54.402Z,2.83
2022-08-29T20:41:21.881Z,3.15
2022-08-29T20:43:48.787Z,2.83
2022-08-29T20:46:16.184Z,2.97
2022-08-29T20:48:43.140Z,2.90
2022-08-29T20:51:10.763Z,2.58
2022-08-29T20:53:39.454Z,2.53
2022-08-29T20:56:07.018Z,2.78
2022-08-29T20:58:34.674Z,3.00
2022-08-29T21:01:02.400Z,2.88
2022-08-29T21:03:47.989Z,3.10
2022-08-29T21:06:18.566Z,3.10
2022-08-29T21:08:45.561Z,3.05
2022-08-29T21:11:14.691Z,2.90
2022-08-29T21:13:43.368Z,3.70
2022-08-29T21:16:11.076Z,3.13
2022-08-29T21:18:38.090Z,3.65
2022-08-29T21:21:05.344Z,3.00
2022-08-29T21:23:32.277Z,3.58
2022-08-29T21:26:00.903Z,3.20
2022-08-29T21:28:29.461Z,4.05
2022-08-29T21:30:58.056Z,3.17
2022-08-29T21:33:25.066Z,3.38
2022-08-29T21:35:52.122Z,3.15
2022-08-29T21:38:18.995Z,3.30
2022-08-29T21:40:50.847Z,3.47
2022-08-29T21:43:19.869Z,2.95
2022-08-29T21:45:47.911Z,2.78
2022-08-29T21:48:14.834Z,3.00
2022-08-29T21:50:42.108Z,3.00
2022-08-29T21:53:11.960Z,3.80
2022-08-29T21:55:38.974Z,3.47
2022-08-29T21:58:07.594Z,3.40
2022-08-29T22:00:36.005Z,3.60
2022-08-29T22:03:06.111Z,3.05
2022-08-29T22:05:33.461Z,2.65
2022-08-29T22:08:03.083Z,2.83
2022-08-29T22:10:34.045Z,3.33
2022-08-29T22:13:02.603Z,3.05
2022-08-29T22:15:48.981Z,3.38
2022-08-29T22:18:16.773Z,3.05
2022-08-29T22:20:44.654Z,3.70
2022-08-29T22:23:11.571Z,3.30
2022-08-29T22:25:41.882Z,3.53
2022-08-29T22:28:10.945Z,3.20
2022-08-29T22:30:38.663Z,3.40
2022-08-29T22:33:06.152Z,3.80
2022-08-29T22:35:33.056Z,3.28
2022-08-29T22:38:00.094Z,3.35
2022-08-29T22:40:27.584Z,3.08
2022-08-29T22:42:54.542Z,3.63
2022-08-29T22:45:21.457Z,3.63
2022-08-29T22:47:48.673Z,3.08
2022-08-29T22:50:22.681Z,3.38
2022-08-29T22:52:49.995Z,2.95
2022-08-29T22:57:48.025Z,3.40
2022-08-29T23:00:19.360Z,3.47
2022-08-29T23:02:47.509Z,3.38
2022-08-29T23:05:15.167Z,3.35
2022-08-29T23:07:42.357Z,2.97
2022-08-29T23:10:10.222Z,3.70
2022-08-29T23:12:37.369Z,3.58
2022-08-29T23:15:10.727Z,3.13
2022-08-29T23:17:37.636Z,3.30
2022-08-29T23:20:06.949Z,3.90
2022-08-29T23:22:34.068Z,3.72
2022-08-29T23:25:01.103Z,3.58
2022-08-29T23:27:30.207Z,3.58
2022-08-29T23:29:58.581Z,3.30
2022-08-29T23:32:26.204Z,3.47
2022-08-29T23:34:53.523Z,3.42
2022-08-29T23:37:20.612Z,3.85
2022-08-29T23:39:47.454Z,3.50
2022-08-29T23:42:14.330Z,3.53
2022-08-29T23:44:41.420Z,3.50
2022-08-29T23:47:08.627Z,3.60
2022-08-29T23:49:35.719Z,3.78
2022-08-29T23:52:04.181Z,3.80
2022-08-29T23:54:31.598Z,3.45
2022-08-29T23:56:58.522Z,3.40
2022-08-29T23:59:44.004Z,3.40
